sensor_id;sensor_type;location;lat;lon;timestamp;temperature;humidity
57829;DHT22;43657;52.698;6.314;2022-11-13T00:01:07;5.50;99.90
57829;DHT22;43657;52.698;6.314;2022-11-13T00:03:33;5.50;99.90
57829;DHT22;43657;52.698;6.314;2022-11-13T00:06:02;5.50;99.90
57829;DHT22;43657;52.698;6.314;2022-11-13T00:08:27;5.50;99.90
57829;DHT22;43657;52.698;6.314;2022-11-13T00:11:04;5.50;99.90
57829;DHT22;43657;52.698;6.314;2022-11-13T00:13:30;5.50;99.90
57829;DHT22;43657;52.698;6.314;2022-11-13T00:16:01;5.50;99.90
57829;DHT22;43657;52.698;6.314;2022-11-13T00:18:27;5.50;99.90
57829;DHT22;43657;52.698;6.314;2022-11-13T00:20:55;5.50;99.90
57829;DHT22;43657;52.698;6.314;2022-11-13T00:23:20;5.50;99.90
57829;DHT22;43657;52.698;6.314;2022-11-13T00:25:46;5.50;99.90
57829;DHT22;43657;52.698;6.314;2022-11-13T00:28:11;5.50;99.90
57829;DHT22;43657;52.698;6.314;2022-11-13T00:30:37;5.50;99.90
57829;DHT22;43657;52.698;6.314;2022-11-13T00:33:03;5.50;99.90
57829;DHT22;43657;52.698;6.314;2022-11-13T00:35:28;5.50;99.90
57829;DHT22;43657;52.698;6.314;2022-11-13T00:37:54;5.50;99.90
57829;DHT22;43657;52.698;6.314;2022-11-13T00:40:19;5.50;99.90
57829;DHT22;43657;52.698;6.314;2022-11-13T00:42:45;5.40;99.90
57829;DHT22;43657;52.698;6.314;2022-11-13T00:45:10;5.40;99.90
57829;DHT22;43657;52.698;6.314;2022-11-13T00:47:36;5.40;99.90
57829;DHT22;43657;52.698;6.314;2022-11-13T00:50:02;5.40;99.90
57829;DHT22;43657;52.698;6.314;2022-11-13T00:52:27;5.40;99.90
57829;DHT22;43657;52.698;6.314;2022-11-13T00:54:53;5.40;99.90
57829;DHT22;43657;52.698;6.314;2022-11-13T00:57:18;5.30;99.90
57829;DHT22;43657;52.698;6.314;2022-11-13T00:59:44;5.30;99.90
57829;DHT22;43657;52.698;6.314;2022-11-13T01:02:10;5.30;99.90
57829;DHT22;43657;52.698;6.314;2022-11-13T01:04:37;5.30;99.90
57829;DHT22;43657;52.698;6.314;2022-11-13T01:07:02;5.30;99.90
57829;DHT22;43657;52.698;6.314;2022-11-13T01:09:28;5.20;99.90
57829;DHT22;43657;52.698;6.314;2022-11-13T01:11:54;5.20;99.90
57829;DHT22;43657;52.698;6.314;2022-11-13T01:14:19;5.20;99.90
57829;DHT22;43657;52.698;6.314;2022-11-13T01:16:45;5.20;99.90
57829;DHT22;43657;52.698;6.314;2022-11-13T01:19:10;5.20;99.90
57829;DHT22;43657;52.698;6.314;2022-11-13T01:21:36;5.20;99.90
57829;DHT22;43657;52.698;6.314;2022-11-13T01:24:01;5.20;99.90
57829;DHT22;43657;52.698;6.314;2022-11-13T01:26:29;5.20;99.90
57829;DHT22;43657;52.698;6.314;2022-11-13T01:28:55;5.20;99.90
57829;DHT22;43657;52.698;6.314;2022-11-13T01:31:24;5.20;99.90
57829;DHT22;43657;52.698;6.314;2022-11-13T01:33:50;5.20;99.90
57829;DHT22;43657;52.698;6.314;2022-11-13T01:36:22;5.30;99.90
57829;DHT22;43657;52.698;6.314;2022-11-13T01:38:48;5.40;99.90
57829;DHT22;43657;52.698;6.314;2022-11-13T01:43:44;5.50;99.90
57829;DHT22;43657;52.698;6.314;2022-11-13T01:48:49;5.60;99.90
57829;DHT22;43657;52.698;6.314;2022-11-13T01:51:21;5.70;99.90
57829;DHT22;43657;52.698;6.314;2022-11-13T01:53:48;5.70;99.90
57829;DHT22;43657;52.698;6.314;2022-11-13T01:56:15;5.70;99.90
57829;DHT22;43657;52.698;6.314;2022-11-13T01:58:44;5.70;99.90
57829;DHT22;43657;52.698;6.314;2022-11-13T02:01:11;5.70;99.90
57829;DHT22;43657;52.698;6.314;2022-11-13T02:03:36;5.70;99.90
57829;DHT22;43657;52.698;6.314;2022-11-13T02:06:02;5.60;99.90
57829;DHT22;43657;52.698;6.314;2022-11-13T02:08:28;5.60;99.90
57829;DHT22;43657;52.698;6.314;2022-11-13T02:10:54;5.60;99.90
57829;DHT22;43657;52.698;6.314;2022-11-13T02:13:20;5.50;99.90
57829;DHT22;43657;52.698;6.314;2022-11-13T02:15:46;5.50;99.90
57829;DHT22;43657;52.698;6.314;2022-11-13T02:18:14;5.50;99.90
57829;DHT22;43657;52.698;6.314;2022-11-13T02:20:54;5.50;99.90
57829;DHT22;43657;52.698;6.314;2022-11-13T02:25:56;5.60;99.90
57829;DHT22;43657;52.698;6.314;2022-11-13T02:28:22;5.60;99.90
57829;DHT22;43657;52.698;6.314;2022-11-13T02:30:48;5.60;99.90
57829;DHT22;43657;52.698;6.314;2022-11-13T02:33:32;5.60;99.90
57829;DHT22;43657;52.698;6.314;2022-11-13T02:35:58;5.60;99.90
57829;DHT22;43657;52.698;6.314;2022-11-13T02:38:24;5.60;99.90
57829;DHT22;43657;52.698;6.314;2022-11-13T02:40:49;5.60;99.90
57829;DHT22;43657;52.698;6.314;2022-11-13T02:43:15;5.60;99.90
57829;DHT22;43657;52.698;6.314;2022-11-13T02:45:40;5.60;99.90
57829;DHT22;43657;52.698;6.314;2022-11-13T02:48:06;5.60;99.90
57829;DHT22;43657;52.698;6.314;2022-11-13T02:50:33;5.70;99.90
57829;DHT22;43657;52.698;6.314;2022-11-13T02:52:58;5.80;99.90
57829;DHT22;43657;52.698;6.314;2022-11-13T02:55:24;5.80;99.90
57829;DHT22;43657;52.698;6.314;2022-11-13T02:57:50;5.90;99.90
57829;DHT22;43657;52.698;6.314;2022-11-13T03:00:15;5.90;99.90
57829;DHT22;43657;52.698;6.314;2022-11-13T03:02:41;5.90;99.90
57829;DHT22;43657;52.698;6.314;2022-11-13T03:05:07;6.00;99.90
57829;DHT22;43657;52.698;6.314;2022-11-13T03:07:33;6.00;99.90
57829;DHT22;43657;52.698;6.314;2022-11-13T03:09:59;6.10;99.90
57829;DHT22;43657;52.698;6.314;2022-11-13T03:12:24;6.10;99.90
57829;DHT22;43657;52.698;6.314;2022-11-13T03:14:50;6.10;99.90
57829;DHT22;43657;52.698;6.314;2022-11-13T03:17:16;6.10;99.90
57829;DHT22;43657;52.698;6.314;2022-11-13T03:19:41;6.10;99.90
57829;DHT22;43657;52.698;6.314;2022-11-13T03:22:07;6.10;99.90
57829;DHT22;43657;52.698;6.314;2022-11-13T03:24:32;6.10;99.90
57829;DHT22;43657;52.698;6.314;2022-11-13T03:26:58;6.10;99.90
57829;DHT22;43657;52.698;6.314;2022-11-13T03:29:23;6.10;99.90
57829;DHT22;43657;52.698;6.314;2022-11-13T03:31:49;6.10;99.90
57829;DHT22;43657;52.698;6.314;2022-11-13T03:34:15;6.00;99.90
57829;DHT22;43657;52.698;6.314;2022-11-13T03:36:40;6.00;99.90
57829;DHT22;43657;52.698;6.314;2022-11-13T03:39:06;6.00;99.90
57829;DHT22;43657;52.698;6.314;2022-11-13T03:41:31;6.00;99.90
57829;DHT22;43657;52.698;6.314;2022-11-13T03:43:57;6.00;99.90
57829;DHT22;43657;52.698;6.314;2022-11-13T03:46:22;6.00;99.90
57829;DHT22;43657;52.698;6.314;2022-11-13T03:48:48;6.00;99.90
57829;DHT22;43657;52.698;6.314;2022-11-13T03:51:13;5.90;99.90
57829;DHT22;43657;52.698;6.314;2022-11-13T03:53:39;5.90;99.90
57829;DHT22;43657;52.698;6.314;2022-11-13T03:56:05;5.90;99.90
57829;DHT22;43657;52.698;6.314;2022-11-13T03:58:30;5.90;99.90
57829;DHT22;43657;52.698;6.314;2022-11-13T04:00:56;5.90;99.90
57829;DHT22;43657;52.698;6.314;2022-11-13T04:03:22;5.80;99.90
57829;DHT22;43657;52.698;6.314;2022-11-13T04:05:48;5.80;99.90
57829;DHT22;43657;52.698;6.314;2022-11-13T04:08:15;5.70;99.90
57829;DHT22;43657;52.698;6.314;2022-11-13T04:10:41;5.70;99.90
57829;DHT22;43657;52.698;6.314;2022-11-13T04:13:07;5.60;99.90
57829;DHT22;43657;52.698;6.314;2022-11-13T04:15:33;5.60;99.90
57829;DHT22;43657;52.698;6.314;2022-11-13T04:17:58;5.60;99.90
57829;DHT22;43657;52.698;6.314;2022-11-13T04:20:25;5.50;99.90
57829;DHT22;43657;52.698;6.314;2022-11-13T04:22:53;5.50;99.90
57829;DHT22;43657;52.698;6.314;2022-11-13T04:25:18;5.40;99.90
57829;DHT22;43657;52.698;6.314;2022-11-13T04:27:44;5.40;99.90
57829;DHT22;43657;52.698;6.314;2022-11-13T04:30:10;5.30;99.90
57829;DHT22;43657;52.698;6.314;2022-11-13T04:32:35;5.30;99.90
57829;DHT22;43657;52.698;6.314;2022-11-13T04:35:01;5.20;99.90
57829;DHT22;43657;52.698;6.314;2022-11-13T04:37:27;5.20;99.90
57829;DHT22;43657;52.698;6.314;2022-11-13T04:39:52;5.20;99.90
57829;DHT22;43657;52.698;6.314;2022-11-13T04:42:18;5.10;99.90
57829;DHT22;43657;52.698;6.314;2022-11-13T04:45:02;5.10;99.90
57829;DHT22;43657;52.698;6.314;2022-11-13T04:47:28;5.10;99.90
57829;DHT22;43657;52.698;6.314;2022-11-13T04:49:54;5.10;99.90
57829;DHT22;43657;52.698;6.314;2022-11-13T04:52:19;5.10;99.90
57829;DHT22;43657;52.698;6.314;2022-11-13T04:54:45;5.10;99.90
57829;DHT22;43657;52.698;6.314;2022-11-13T04:57:10;5.10;99.90
57829;DHT22;43657;52.698;6.314;2022-11-13T04:59:36;5.10;99.90
57829;DHT22;43657;52.698;6.314;2022-11-13T05:02:02;5.10;99.90
57829;DHT22;43657;52.698;6.314;2022-11-13T05:04:28;5.10;99.90
57829;DHT22;43657;52.698;6.314;2022-11-13T05:06:53;5.10;99.90
57829;DHT22;43657;52.698;6.314;2022-11-13T05:09:19;5.00;99.90
57829;DHT22;43657;52.698;6.314;2022-11-13T05:11:44;5.00;99.90
57829;DHT22;43657;52.698;6.314;2022-11-13T05:14:11;5.10;99.90
57829;DHT22;43657;52.698;6.314;2022-11-13T05:16:37;5.10;99.90
57829;DHT22;43657;52.698;6.314;2022-11-13T05:19:03;5.20;99.90
57829;DHT22;43657;52.698;6.314;2022-11-13T05:21:32;5.20;99.90
57829;DHT22;43657;52.698;6.314;2022-11-13T05:23:58;5.30;99.90
57829;DHT22;43657;52.698;6.314;2022-11-13T05:26:23;5.40;99.90
57829;DHT22;43657;52.698;6.314;2022-11-13T05:28:50;5.40;99.90
57829;DHT22;43657;52.698;6.314;2022-11-13T05:31:16;5.50;99.90
57829;DHT22;43657;52.698;6.314;2022-11-13T05:33:42;5.50;99.90
57829;DHT22;43657;52.698;6.314;2022-11-13T05:36:13;5.50;99.90
57829;DHT22;43657;52.698;6.314;2022-11-13T05:38:40;5.50;99.90
57829;DHT22;43657;52.698;6.314;2022-11-13T05:41:11;5.50;99.90
57829;DHT22;43657;52.698;6.314;2022-11-13T05:43:37;5.50;99.90
57829;DHT22;43657;52.698;6.314;2022-11-13T05:46:06;5.50;99.90
57829;DHT22;43657;52.698;6.314;2022-11-13T05:48:33;5.50;99.90
57829;DHT22;43657;52.698;6.314;2022-11-13T05:53:27;5.50;99.90
57829;DHT22;43657;52.698;6.314;2022-11-13T05:55:53;5.60;99.90
57829;DHT22;43657;52.698;6.314;2022-11-13T05:58:19;5.50;99.90
57829;DHT22;43657;52.698;6.314;2022-11-13T06:00:44;5.60;99.90
57829;DHT22;43657;52.698;6.314;2022-11-13T06:03:10;5.50;99.90
57829;DHT22;43657;52.698;6.314;2022-11-13T06:05:36;5.50;99.90
57829;DHT22;43657;52.698;6.314;2022-11-13T06:08:01;5.40;99.90
57829;DHT22;43657;52.698;6.314;2022-11-13T06:10:27;5.40;99.90
57829;DHT22;43657;52.698;6.314;2022-11-13T06:12:53;5.30;99.90
57829;DHT22;43657;52.698;6.314;2022-11-13T06:15:19;5.20;99.90
57829;DHT22;43657;52.698;6.314;2022-11-13T06:17:45;5.20;99.90
57829;DHT22;43657;52.698;6.314;2022-11-13T06:20:11;5.10;99.90
57829;DHT22;43657;52.698;6.314;2022-11-13T06:22:36;5.00;99.90
57829;DHT22;43657;52.698;6.314;2022-11-13T06:25:02;5.00;99.90
57829;DHT22;43657;52.698;6.314;2022-11-13T06:27:28;4.90;99.90
57829;DHT22;43657;52.698;6.314;2022-11-13T06:29:54;4.80;99.90
57829;DHT22;43657;52.698;6.314;2022-11-13T06:32:19;4.80;99.90
57829;DHT22;43657;52.698;6.314;2022-11-13T06:34:45;4.70;99.90
57829;DHT22;43657;52.698;6.314;2022-11-13T06:37:10;4.60;99.90
57829;DHT22;43657;52.698;6.314;2022-11-13T06:39:36;4.60;99.90
57829;DHT22;43657;52.698;6.314;2022-11-13T06:42:07;4.60;99.90
57829;DHT22;43657;52.698;6.314;2022-11-13T06:44:37;4.60;99.90
57829;DHT22;43657;52.698;6.314;2022-11-13T06:47:10;4.60;99.90
57829;DHT22;43657;52.698;6.314;2022-11-13T06:50:04;4.60;99.90
57829;DHT22;43657;52.698;6.314;2022-11-13T06:56:21;4.40;99.90
57829;DHT22;43657;52.698;6.314;2022-11-13T06:59:05;4.40;99.90
57829;DHT22;43657;52.698;6.314;2022-11-13T07:01:37;4.30;99.90
57829;DHT22;43657;52.698;6.314;2022-11-13T07:04:14;4.30;99.90
57829;DHT22;43657;52.698;6.314;2022-11-13T07:13:59;4.20;99.90
57829;DHT22;43657;52.698;6.314;2022-11-13T07:16:44;4.20;99.90
57829;DHT22;43657;52.698;6.314;2022-11-13T07:19:23;4.20;99.90
57829;DHT22;43657;52.698;6.314;2022-11-13T07:21:58;4.30;99.90
57829;DHT22;43657;52.698;6.314;2022-11-13T07:24:36;4.40;99.90
57829;DHT22;43657;52.698;6.314;2022-11-13T07:27:13;4.50;99.90
57829;DHT22;43657;52.698;6.314;2022-11-13T07:29:45;4.50;99.90
57829;DHT22;43657;52.698;6.314;2022-11-13T07:32:23;4.50;99.90
57829;DHT22;43657;52.698;6.314;2022-11-13T07:34:53;4.60;99.90
57829;DHT22;43657;52.698;6.314;2022-11-13T07:37:41;4.50;99.90
57829;DHT22;43657;52.698;6.314;2022-11-13T07:43:15;4.50;99.90
57829;DHT22;43657;52.698;6.314;2022-11-13T07:46:06;4.60;99.90
57829;DHT22;43657;52.698;6.314;2022-11-13T07:49:04;4.60;99.90
57829;DHT22;43657;52.698;6.314;2022-11-13T07:52:01;4.60;99.90
57829;DHT22;43657;52.698;6.314;2022-11-13T07:54:47;4.60;99.90
57829;DHT22;43657;52.698;6.314;2022-11-13T07:57:30;4.60;99.90
57829;DHT22;43657;52.698;6.314;2022-11-13T08:00:15;4.60;99.90
57829;DHT22;43657;52.698;6.314;2022-11-13T08:03:15;4.60;99.90
57829;DHT22;43657;52.698;6.314;2022-11-13T08:06:02;4.60;99.90
57829;DHT22;43657;52.698;6.314;2022-11-13T08:08:51;4.60;99.90
57829;DHT22;43657;52.698;6.314;2022-11-13T08:11:29;4.70;99.90
57829;DHT22;43657;52.698;6.314;2022-11-13T08:14:16;4.80;99.90
57829;DHT22;43657;52.698;6.314;2022-11-13T08:20:30;5.20;99.90
57829;DHT22;43657;52.698;6.314;2022-11-13T08:31:08;5.90;99.90
57829;DHT22;43657;52.698;6.314;2022-11-13T08:37:07;6.00;99.90
57829;DHT22;43657;52.698;6.314;2022-11-13T08:39:38;6.20;99.90
57829;DHT22;43657;52.698;6.314;2022-11-13T08:42:12;6.20;99.90
57829;DHT22;43657;52.698;6.314;2022-11-13T08:44:43;6.30;99.90
57829;DHT22;43657;52.698;6.314;2022-11-13T08:47:20;6.40;99.90
57829;DHT22;43657;52.698;6.314;2022-11-13T08:49:46;6.50;99.90
57829;DHT22;43657;52.698;6.314;2022-11-13T08:52:11;6.40;99.90
57829;DHT22;43657;52.698;6.314;2022-11-13T08:54:37;6.50;99.90
57829;DHT22;43657;52.698;6.314;2022-11-13T08:57:03;6.60;99.90
57829;DHT22;43657;52.698;6.314;2022-11-13T08:59:28;6.60;99.90
57829;DHT22;43657;52.698;6.314;2022-11-13T09:01:54;6.80;99.90
57829;DHT22;43657;52.698;6.314;2022-11-13T09:04:24;6.80;99.90
57829;DHT22;43657;52.698;6.314;2022-11-13T09:06:50;6.90;99.90
57829;DHT22;43657;52.698;6.314;2022-11-13T09:09:17;7.00;99.90
57829;DHT22;43657;52.698;6.314;2022-11-13T09:11:43;7.10;99.90
57829;DHT22;43657;52.698;6.314;2022-11-13T09:14:08;7.10;99.90
57829;DHT22;43657;52.698;6.314;2022-11-13T09:16:34;7.20;99.90
57829;DHT22;43657;52.698;6.314;2022-11-13T09:18:59;7.30;99.90
57829;DHT22;43657;52.698;6.314;2022-11-13T09:21:25;7.40;99.90
57829;DHT22;43657;52.698;6.314;2022-11-13T09:23:50;7.50;99.90
57829;DHT22;43657;52.698;6.314;2022-11-13T09:26:17;7.50;99.90
57829;DHT22;43657;52.698;6.314;2022-11-13T09:28:42;7.70;99.90
57829;DHT22;43657;52.698;6.314;2022-11-13T09:31:09;7.70;99.90
57829;DHT22;43657;52.698;6.314;2022-11-13T09:33:34;7.80;99.90
57829;DHT22;43657;52.698;6.314;2022-11-13T09:36:00;8.00;99.90
57829;DHT22;43657;52.698;6.314;2022-11-13T09:38:26;8.20;99.90
57829;DHT22;43657;52.698;6.314;2022-11-13T09:41:00;8.60;99.90
57829;DHT22;43657;52.698;6.314;2022-11-13T09:43:38;8.90;99.90
57829;DHT22;43657;52.698;6.314;2022-11-13T09:48:38;9.30;99.90
57829;DHT22;43657;52.698;6.314;2022-11-13T09:51:11;9.30;99.90
57829;DHT22;43657;52.698;6.314;2022-11-13T09:53:38;9.30;99.90
57829;DHT22;43657;52.698;6.314;2022-11-13T09:56:32;9.40;99.90
57829;DHT22;43657;52.698;6.314;2022-11-13T10:04:31;9.70;99.90
57829;DHT22;43657;52.698;6.314;2022-11-13T10:07:21;9.80;99.90
57829;DHT22;43657;52.698;6.314;2022-11-13T10:10:21;9.80;99.90
57829;DHT22;43657;52.698;6.314;2022-11-13T10:12:52;10.00;99.90
57829;DHT22;43657;52.698;6.314;2022-11-13T10:15:18;10.10;99.90
57829;DHT22;43657;52.698;6.314;2022-11-13T10:17:52;10.20;99.90
57829;DHT22;43657;52.698;6.314;2022-11-13T10:20:38;10.30;99.90
57829;DHT22;43657;52.698;6.314;2022-11-13T10:23:15;10.40;99.90
57829;DHT22;43657;52.698;6.314;2022-11-13T10:25:43;10.50;99.90
57829;DHT22;43657;52.698;6.314;2022-11-13T10:30:41;10.80;99.90
57829;DHT22;43657;52.698;6.314;2022-11-13T10:33:08;10.80;99.90
57829;DHT22;43657;52.698;6.314;2022-11-13T10:35:45;10.90;99.90
57829;DHT22;43657;52.698;6.314;2022-11-13T10:41:16;11.10;99.90
57829;DHT22;43657;52.698;6.314;2022-11-13T10:44:05;11.20;99.90
57829;DHT22;43657;52.698;6.314;2022-11-13T10:46:31;11.30;99.90
57829;DHT22;43657;52.698;6.314;2022-11-13T10:49:09;11.40;99.90
57829;DHT22;43657;52.698;6.314;2022-11-13T10:51:35;11.50;99.90
57829;DHT22;43657;52.698;6.314;2022-11-13T10:54:23;11.50;99.90
57829;DHT22;43657;52.698;6.314;2022-11-13T10:57:03;11.60;99.90
57829;DHT22;43657;52.698;6.314;2022-11-13T10:59:43;11.60;99.90
57829;DHT22;43657;52.698;6.314;2022-11-13T11:02:22;11.70;99.90
57829;DHT22;43657;52.698;6.314;2022-11-13T11:04:59;11.70;99.90
57829;DHT22;43657;52.698;6.314;2022-11-13T11:07:25;11.70;99.90
57829;DHT22;43657;52.698;6.314;2022-11-13T11:09:51;11.90;99.90
57829;DHT22;43657;52.698;6.314;2022-11-13T11:12:19;12.00;99.90
57829;DHT22;43657;52.698;6.314;2022-11-13T11:17:40;12.20;99.90
57829;DHT22;43657;52.698;6.314;2022-11-13T11:23:33;12.60;99.90
57829;DHT22;43657;52.698;6.314;2022-11-13T11:26:31;12.90;99.90
57829;DHT22;43657;52.698;6.314;2022-11-13T11:34:18;13.70;99.90
57829;DHT22;43657;52.698;6.314;2022-11-13T11:36:58;14.10;99.90
57829;DHT22;43657;52.698;6.314;2022-11-13T11:45:36;14.50;99.90
57829;DHT22;43657;52.698;6.314;2022-11-13T11:48:08;14.50;99.90
57829;DHT22;43657;52.698;6.314;2022-11-13T11:54:13;14.30;99.90
57829;DHT22;43657;52.698;6.314;2022-11-13T11:56:48;14.20;99.90
57829;DHT22;43657;52.698;6.314;2022-11-13T11:59:41;14.20;99.90
57829;DHT22;43657;52.698;6.314;2022-11-13T12:05:21;14.20;99.90
57829;DHT22;43657;52.698;6.314;2022-11-13T12:21:23;14.40;99.90
57829;DHT22;43657;52.698;6.314;2022-11-13T12:26:45;14.50;99.90
57829;DHT22;43657;52.698;6.314;2022-11-13T12:34:50;14.60;99.90
57829;DHT22;43657;52.698;6.314;2022-11-13T12:37:24;14.50;99.90
57829;DHT22;43657;52.698;6.314;2022-11-13T12:39:57;14.50;99.90
57829;DHT22;43657;52.698;6.314;2022-11-13T12:47:49;14.40;99.90
57829;DHT22;43657;52.698;6.314;2022-11-13T12:50:43;14.40;99.90
57829;DHT22;43657;52.698;6.314;2022-11-13T12:53:10;14.40;99.90
57829;DHT22;43657;52.698;6.314;2022-11-13T12:55:39;14.40;99.90
57829;DHT22;43657;52.698;6.314;2022-11-13T13:00:39;14.30;99.90
57829;DHT22;43657;52.698;6.314;2022-11-13T13:06:19;14.10;99.90
57829;DHT22;43657;52.698;6.314;2022-11-13T13:09:02;14.00;99.90
57829;DHT22;43657;52.698;6.314;2022-11-13T13:19:39;14.00;99.90
57829;DHT22;43657;52.698;6.314;2022-11-13T13:22:10;13.90;99.90
57829;DHT22;43657;52.698;6.314;2022-11-13T13:24:37;13.90;99.90
57829;DHT22;43657;52.698;6.314;2022-11-13T13:27:24;13.90;99.90
57829;DHT22;43657;52.698;6.314;2022-11-13T13:29:50;13.90;99.90
57829;DHT22;43657;52.698;6.314;2022-11-13T13:32:17;13.90;99.90
57829;DHT22;43657;52.698;6.314;2022-11-13T13:41:06;13.80;99.90
57829;DHT22;43657;52.698;6.314;2022-11-13T13:46:24;13.70;99.90
57829;DHT22;43657;52.698;6.314;2022-11-13T13:48:54;13.70;99.90
57829;DHT22;43657;52.698;6.314;2022-11-13T13:51:41;13.80;99.90
57829;DHT22;43657;52.698;6.314;2022-11-13T13:54:08;13.70;99.90
57829;DHT22;43657;52.698;6.314;2022-11-13T13:56:39;13.70;99.90
57829;DHT22;43657;52.698;6.314;2022-11-13T13:59:13;13.70;99.90
57829;DHT22;43657;52.698;6.314;2022-11-13T14:01:39;13.70;99.90
57829;DHT22;43657;52.698;6.314;2022-11-13T14:04:16;13.70;99.90
57829;DHT22;43657;52.698;6.314;2022-11-13T14:06:57;13.70;99.90
57829;DHT22;43657;52.698;6.314;2022-11-13T14:09:25;13.70;99.90
57829;DHT22;43657;52.698;6.314;2022-11-13T14:12:04;13.70;99.90
57829;DHT22;43657;52.698;6.314;2022-11-13T14:14:30;13.70;99.90
57829;DHT22;43657;52.698;6.314;2022-11-13T14:16:58;13.60;99.90
57829;DHT22;43657;52.698;6.314;2022-11-13T14:19:25;13.60;99.90
57829;DHT22;43657;52.698;6.314;2022-11-13T14:21:53;13.60;99.90
57829;DHT22;43657;52.698;6.314;2022-11-13T14:24:33;13.60;99.90
57829;DHT22;43657;52.698;6.314;2022-11-13T14:27:03;13.50;99.90
57829;DHT22;43657;52.698;6.314;2022-11-13T14:29:46;13.50;99.90
57829;DHT22;43657;52.698;6.314;2022-11-13T14:32:37;13.50;99.90
57829;DHT22;43657;52.698;6.314;2022-11-13T14:35:01;13.40;99.90
57829;DHT22;43657;52.698;6.314;2022-11-13T14:37:35;13.30;99.90
57829;DHT22;43657;52.698;6.314;2022-11-13T14:40:04;13.30;99.90
57829;DHT22;43657;52.698;6.314;2022-11-13T14:42:33;13.20;99.90
57829;DHT22;43657;52.698;6.314;2022-11-13T14:45:18;13.20;99.90
57829;DHT22;43657;52.698;6.314;2022-11-13T14:48:16;13.10;99.90
57829;DHT22;43657;52.698;6.314;2022-11-13T14:53:55;12.90;99.90
57829;DHT22;43657;52.698;6.314;2022-11-13T14:56:31;12.80;99.90
57829;DHT22;43657;52.698;6.314;2022-11-13T14:59:06;12.70;99.90
57829;DHT22;43657;52.698;6.314;2022-11-13T15:01:32;12.70;99.90
57829;DHT22;43657;52.698;6.314;2022-11-13T15:03:58;12.50;99.90
57829;DHT22;43657;52.698;6.314;2022-11-13T15:06:26;12.40;99.90
57829;DHT22;43657;52.698;6.314;2022-11-13T15:08:57;12.30;99.90
57829;DHT22;43657;52.698;6.314;2022-11-13T15:11:25;12.20;99.90
57829;DHT22;43657;52.698;6.314;2022-11-13T15:13:51;12.10;99.90
57829;DHT22;43657;52.698;6.314;2022-11-13T15:16:37;11.90;99.90
57829;DHT22;43657;52.698;6.314;2022-11-13T15:19:08;11.80;99.90
57829;DHT22;43657;52.698;6.314;2022-11-13T15:21:35;11.60;99.90
57829;DHT22;43657;52.698;6.314;2022-11-13T15:24:01;11.60;99.90
57829;DHT22;43657;52.698;6.314;2022-11-13T15:26:26;11.50;99.90
57829;DHT22;43657;52.698;6.314;2022-11-13T15:28:52;11.40;99.90
57829;DHT22;43657;52.698;6.314;2022-11-13T15:33:57;11.40;99.90
57829;DHT22;43657;52.698;6.314;2022-11-13T15:36:23;11.30;99.90
57829;DHT22;43657;52.698;6.314;2022-11-13T15:38:49;11.20;99.90
57829;DHT22;43657;52.698;6.314;2022-11-13T15:41:19;11.10;99.90
57829;DHT22;43657;52.698;6.314;2022-11-13T15:43:55;11.00;99.90
57829;DHT22;43657;52.698;6.314;2022-11-13T15:46:22;10.90;99.90
57829;DHT22;43657;52.698;6.314;2022-11-13T15:48:49;10.80;99.90
57829;DHT22;43657;52.698;6.314;2022-11-13T15:51:33;10.60;99.90
57829;DHT22;43657;52.698;6.314;2022-11-13T15:54:10;10.40;99.90
57829;DHT22;43657;52.698;6.314;2022-11-13T15:56:38;10.20;99.90
57829;DHT22;43657;52.698;6.314;2022-11-13T15:59:04;10.10;99.90
57829;DHT22;43657;52.698;6.314;2022-11-13T16:01:29;10.00;99.90
57829;DHT22;43657;52.698;6.314;2022-11-13T16:03:55;9.80;99.90
57829;DHT22;43657;52.698;6.314;2022-11-13T16:06:22;9.70;99.90
57829;DHT22;43657;52.698;6.314;2022-11-13T16:08:49;9.50;99.90
57829;DHT22;43657;52.698;6.314;2022-11-13T16:11:16;9.40;99.90
57829;DHT22;43657;52.698;6.314;2022-11-13T16:13:42;9.40;99.90
57829;DHT22;43657;52.698;6.314;2022-11-13T16:16:13;9.30;99.90
57829;DHT22;43657;52.698;6.314;2022-11-13T16:18:41;9.20;99.90
57829;DHT22;43657;52.698;6.314;2022-11-13T16:21:10;9.00;99.90
57829;DHT22;43657;52.698;6.314;2022-11-13T16:23:36;8.90;99.90
57829;DHT22;43657;52.698;6.314;2022-11-13T16:26:02;8.80;99.90
57829;DHT22;43657;52.698;6.314;2022-11-13T16:28:28;8.70;99.90
57829;DHT22;43657;52.698;6.314;2022-11-13T16:30:54;8.60;99.90
57829;DHT22;43657;52.698;6.314;2022-11-13T16:33:20;8.50;99.90
57829;DHT22;43657;52.698;6.314;2022-11-13T16:35:47;8.40;99.90
57829;DHT22;43657;52.698;6.314;2022-11-13T16:38:13;8.30;99.90
57829;DHT22;43657;52.698;6.314;2022-11-13T16:40:39;8.30;99.90
57829;DHT22;43657;52.698;6.314;2022-11-13T16:43:09;8.20;99.90
57829;DHT22;43657;52.698;6.314;2022-11-13T16:45:38;8.10;99.90
57829;DHT22;43657;52.698;6.314;2022-11-13T16:48:05;8.10;99.90
57829;DHT22;43657;52.698;6.314;2022-11-13T16:54:26;8.00;99.90
57829;DHT22;43657;52.698;6.314;2022-11-13T16:56:55;8.10;99.90
57829;DHT22;43657;52.698;6.314;2022-11-13T16:59:21;8.20;99.90
57829;DHT22;43657;52.698;6.314;2022-11-13T17:01:52;8.40;99.90
57829;DHT22;43657;52.698;6.314;2022-11-13T17:04:20;8.40;99.90
57829;DHT22;43657;52.698;6.314;2022-11-13T17:06:47;8.60;99.90
57829;DHT22;43657;52.698;6.314;2022-11-13T17:09:19;8.80;99.90
57829;DHT22;43657;52.698;6.314;2022-11-13T17:11:51;8.90;99.90
57829;DHT22;43657;52.698;6.314;2022-11-13T17:14:18;9.00;99.90
57829;DHT22;43657;52.698;6.314;2022-11-13T17:17:20;9.00;99.90
57829;DHT22;43657;52.698;6.314;2022-11-13T17:20:15;9.00;99.90
57829;DHT22;43657;52.698;6.314;2022-11-13T18:48:02;8.40;99.90
57829;DHT22;43657;52.698;6.314;2022-11-13T18:51:21;8.30;99.90
57829;DHT22;43657;52.698;6.314;2022-11-13T18:54:47;8.20;99.90
57829;DHT22;43657;52.698;6.314;2022-11-13T19:05:46;7.90;99.90
57829;DHT22;43657;52.698;6.314;2022-11-13T19:08:53;7.90;99.90
57829;DHT22;43657;52.698;6.314;2022-11-13T19:11:46;7.80;99.90
57829;DHT22;43657;52.698;6.314;2022-11-13T19:14:16;7.70;99.90
57829;DHT22;43657;52.698;6.314;2022-11-13T19:16:45;7.60;99.90
57829;DHT22;43657;52.698;6.314;2022-11-13T19:30:17;7.40;99.90
57829;DHT22;43657;52.698;6.314;2022-11-13T19:36:57;7.20;99.90
57829;DHT22;43657;52.698;6.314;2022-11-13T19:58:26;6.90;99.90
57829;DHT22;43657;52.698;6.314;2022-11-13T20:02:10;6.80;99.90
57829;DHT22;43657;52.698;6.314;2022-11-13T20:50:34;5.90;99.90
57829;DHT22;43657;52.698;6.314;2022-11-13T20:53:51;5.90;99.90
57829;DHT22;43657;52.698;6.314;2022-11-13T20:57:03;5.80;99.90
57829;DHT22;43657;52.698;6.314;2022-11-13T21:14:56;5.40;99.90
57829;DHT22;43657;52.698;6.314;2022-11-13T21:18:32;5.30;99.90
57829;DHT22;43657;52.698;6.314;2022-11-13T21:31:30;5.00;99.90
57829;DHT22;43657;52.698;6.314;2022-11-13T21:34:09;4.90;99.90
57829;DHT22;43657;52.698;6.314;2022-11-13T21:40:06;4.90;99.90
57829;DHT22;43657;52.698;6.314;2022-11-13T21:43:25;5.00;99.90
57829;DHT22;43657;52.698;6.314;2022-11-13T21:50:14;5.00;99.90
57829;DHT22;43657;52.698;6.314;2022-11-13T21:52:48;5.00;99.90